sensor_id;sensor_type;location;lat;lon;timestamp;pressure;altitude;pressure_sealevel;temperature;humidity
21838;BME280;11081;45.946;6.140;2023-02-14T00:01:26;96856.06;;;5.65;64.31
21838;BME280;11081;45.946;6.140;2023-02-14T00:03:54;96850.91;;;5.65;64.79
21838;BME280;11081;45.946;6.140;2023-02-14T00:06:27;96846.13;;;5.60;65.42
21838;BME280;11081;45.946;6.140;2023-02-14T00:08:55;96852.06;;;5.53;64.76
21838;BME280;11081;45.946;6.140;2023-02-14T00:11:23;96845.56;;;5.48;65.86
21838;BME280;11081;45.946;6.140;2023-02-14T00:13:53;96841.94;;;5.41;65.88
21838;BME280;11081;45.946;6.140;2023-02-14T00:16:38;96843.81;;;5.39;65.11
21838;BME280;11081;45.946;6.140;2023-02-14T00:19:06;96846.56;;;5.38;65.38
21838;BME280;11081;45.946;6.140;2023-02-14T00:21:35;96843.44;;;5.34;65.60
21838;BME280;11081;45.946;6.140;2023-02-14T00:24:05;96848.41;;;5.28;66.34
21838;BME280;11081;45.946;6.140;2023-02-14T00:26:34;96854.97;;;5.22;66.36
21838;BME280;11081;45.946;6.140;2023-02-14T00:29:06;96848.44;;;5.18;66.92
21838;BME280;11081;45.946;6.140;2023-02-14T00:31:35;96841.63;;;5.17;66.02
21838;BME280;11081;45.946;6.140;2023-02-14T00:34:03;96846.97;;;5.15;66.00
21838;BME280;11081;45.946;6.140;2023-02-14T00:36:31;96847.97;;;5.05;66.55
21838;BME280;11081;45.946;6.140;2023-02-14T00:39:00;96842.81;;;5.05;66.08
21838;BME280;11081;45.946;6.140;2023-02-14T00:41:29;96843.34;;;5.08;66.10
21838;BME280;11081;45.946;6.140;2023-02-14T00:43:57;96837.06;;;5.11;66.26
21838;BME280;11081;45.946;6.140;2023-02-14T00:46:27;96833.50;;;5.12;66.73
21838;BME280;11081;45.946;6.140;2023-02-14T00:48:55;96841.94;;;5.14;66.74
21838;BME280;11081;45.946;6.140;2023-02-14T00:51:23;96837.34;;;5.08;66.25
21838;BME280;11081;45.946;6.140;2023-02-14T00:53:52;96841.69;;;5.07;66.14
21838;BME280;11081;45.946;6.140;2023-02-14T00:56:20;96843.84;;;5.12;66.59
21838;BME280;11081;45.946;6.140;2023-02-14T00:58:48;96838.69;;;5.12;66.43
21838;BME280;11081;45.946;6.140;2023-02-14T01:01:16;96834.91;;;5.06;66.52
21838;BME280;11081;45.946;6.140;2023-02-14T01:03:46;96842.66;;;5.06;66.82
21838;BME280;11081;45.946;6.140;2023-02-14T01:06:17;96839.25;;;5.06;66.12
21838;BME280;11081;45.946;6.140;2023-02-14T01:08:45;96841.41;;;5.10;65.96
21838;BME280;11081;45.946;6.140;2023-02-14T01:11:15;96839.63;;;5.11;66.65
21838;BME280;11081;45.946;6.140;2023-02-14T01:13:45;96833.78;;;5.09;66.88
21838;BME280;11081;45.946;6.140;2023-02-14T01:16:18;96834.03;;;5.15;66.08
21838;BME280;11081;45.946;6.140;2023-02-14T01:18:48;96828.03;;;5.15;66.71
21838;BME280;11081;45.946;6.140;2023-02-14T01:21:18;96839.72;;;5.19;65.60
21838;BME280;11081;45.946;6.140;2023-02-14T01:23:49;96830.19;;;5.19;66.47
21838;BME280;11081;45.946;6.140;2023-02-14T01:26:19;96833.66;;;5.10;66.65
21838;BME280;11081;45.946;6.140;2023-02-14T01:28:47;96840.31;;;5.13;66.23
21838;BME280;11081;45.946;6.140;2023-02-14T01:31:18;96839.34;;;5.14;65.26
21838;BME280;11081;45.946;6.140;2023-02-14T01:33:49;96833.72;;;5.18;64.99
21838;BME280;11081;45.946;6.140;2023-02-14T01:36:20;96833.88;;;5.17;65.77
21838;BME280;11081;45.946;6.140;2023-02-14T01:38:50;96836.75;;;5.14;66.08
21838;BME280;11081;45.946;6.140;2023-02-14T01:41:19;96828.63;;;5.09;65.54
21838;BME280;11081;45.946;6.140;2023-02-14T01:43:57;96830.84;;;5.04;65.73
21838;BME280;11081;45.946;6.140;2023-02-14T01:46:28;96822.41;;;5.02;65.26
21838;BME280;11081;45.946;6.140;2023-02-14T01:49:01;96824.59;;;4.97;66.13
21838;BME280;11081;45.946;6.140;2023-02-14T01:51:31;96822.00;;;4.97;66.38
21838;BME280;11081;45.946;6.140;2023-02-14T01:54:02;96824.28;;;5.00;66.00
21838;BME280;11081;45.946;6.140;2023-02-14T01:56:35;96822.66;;;4.99;65.65
21838;BME280;11081;45.946;6.140;2023-02-14T01:59:05;96818.59;;;4.96;65.61
21838;BME280;11081;45.946;6.140;2023-02-14T02:01:35;96819.41;;;4.97;66.14
21838;BME280;11081;45.946;6.140;2023-02-14T02:04:08;96815.13;;;4.78;66.58
21838;BME280;11081;45.946;6.140;2023-02-14T02:06:39;96821.13;;;4.78;66.37
21838;BME280;11081;45.946;6.140;2023-02-14T02:09:12;96814.06;;;4.80;66.76
21838;BME280;11081;45.946;6.140;2023-02-14T02:11:42;96816.66;;;4.80;66.41
21838;BME280;11081;45.946;6.140;2023-02-14T02:14:13;96817.31;;;4.82;66.22
21838;BME280;11081;45.946;6.140;2023-02-14T02:16:59;96813.25;;;4.80;66.71
21838;BME280;11081;45.946;6.140;2023-02-14T02:20:06;96803.72;;;4.80;66.35
21838;BME280;11081;45.946;6.140;2023-02-14T02:23:08;96814.63;;;4.74;66.69
21838;BME280;11081;45.946;6.140;2023-02-14T02:26:02;96803.22;;;4.67;66.48
21838;BME280;11081;45.946;6.140;2023-02-14T02:29:04;96808.09;;;4.70;67.45
21838;BME280;11081;45.946;6.140;2023-02-14T02:32:03;96806.19;;;4.72;66.08
21838;BME280;11081;45.946;6.140;2023-02-14T02:38:00;96807.53;;;4.76;66.06
21838;BME280;11081;45.946;6.140;2023-02-14T02:40:43;96811.88;;;4.76;66.10
21838;BME280;11081;45.946;6.140;2023-02-14T02:43:26;96811.34;;;4.72;66.12
21838;BME280;11081;45.946;6.140;2023-02-14T02:45:59;96814.63;;;4.74;66.58
21838;BME280;11081;45.946;6.140;2023-02-14T02:48:53;96802.34;;;4.76;66.77
21838;BME280;11081;45.946;6.140;2023-02-14T02:51:28;96800.72;;;4.75;65.82
21838;BME280;11081;45.946;6.140;2023-02-14T02:54:23;96802.41;;;4.67;66.61
21838;BME280;11081;45.946;6.140;2023-02-14T02:56:58;96805.97;;;4.56;67.35
21838;BME280;11081;45.946;6.140;2023-02-14T02:59:29;96802.06;;;4.52;67.73
21838;BME280;11081;45.946;6.140;2023-02-14T03:02:08;96804.63;;;4.52;67.37
21838;BME280;11081;45.946;6.140;2023-02-14T03:04:41;96802.72;;;4.54;66.76
21838;BME280;11081;45.946;6.140;2023-02-14T03:07:31;96798.13;;;4.48;66.12
21838;BME280;11081;45.946;6.140;2023-02-14T03:10:11;96799.75;;;4.49;66.80
21838;BME280;11081;45.946;6.140;2023-02-14T03:12:59;96800.56;;;4.49;66.08
21838;BME280;11081;45.946;6.140;2023-02-14T03:15:39;96803.28;;;4.48;66.30
21838;BME280;11081;45.946;6.140;2023-02-14T03:18:22;96794.63;;;4.39;66.91
21838;BME280;11081;45.946;6.140;2023-02-14T03:21:20;96797.34;;;4.38;66.76
21838;BME280;11081;45.946;6.140;2023-02-14T03:23:57;96798.03;;;4.40;66.92
21838;BME280;11081;45.946;6.140;2023-02-14T03:26:36;96788.66;;;4.39;66.82
21838;BME280;11081;45.946;6.140;2023-02-14T03:29:11;96790.81;;;4.34;67.06
21838;BME280;11081;45.946;6.140;2023-02-14T03:31:47;96796.78;;;4.34;67.04
21838;BME280;11081;45.946;6.140;2023-02-14T03:34:23;96791.78;;;4.33;67.00
21838;BME280;11081;45.946;6.140;2023-02-14T03:36:55;96790.81;;;4.34;66.58
21838;BME280;11081;45.946;6.140;2023-02-14T03:39:27;96793.53;;;4.42;66.69
21838;BME280;11081;45.946;6.140;2023-02-14T03:42:02;96795.44;;;4.40;66.47
21838;BME280;11081;45.946;6.140;2023-02-14T03:44:33;96796.94;;;4.42;66.45
21838;BME280;11081;45.946;6.140;2023-02-14T03:47:06;96794.06;;;4.36;66.27
21838;BME280;11081;45.946;6.140;2023-02-14T03:49:39;96797.91;;;4.32;66.38
21838;BME280;11081;45.946;6.140;2023-02-14T03:52:09;96801.44;;;4.31;67.06
21838;BME280;11081;45.946;6.140;2023-02-14T03:54:39;96793.31;;;4.25;66.36
21838;BME280;11081;45.946;6.140;2023-02-14T03:57:13;96796.84;;;4.24;66.53
21838;BME280;11081;45.946;6.140;2023-02-14T03:59:43;96800.09;;;4.26;66.60
21838;BME280;11081;45.946;6.140;2023-02-14T04:02:14;96799.53;;;4.33;66.05
21838;BME280;11081;45.946;6.140;2023-02-14T04:04:45;96803.88;;;4.32;66.14
21838;BME280;11081;45.946;6.140;2023-02-14T04:07:17;96803.91;;;4.22;66.57
21838;BME280;11081;45.946;6.140;2023-02-14T04:09:46;96796.03;;;4.14;67.12
21838;BME280;11081;45.946;6.140;2023-02-14T04:12:17;96796.59;;;4.08;67.25
21838;BME280;11081;45.946;6.140;2023-02-14T04:15:02;96789.53;;;4.10;67.28
21838;BME280;11081;45.946;6.140;2023-02-14T04:17:30;96788.28;;;4.14;66.47
21838;BME280;11081;45.946;6.140;2023-02-14T04:20:16;96790.06;;;4.14;67.58
21838;BME280;11081;45.946;6.140;2023-02-14T04:22:44;96797.41;;;4.18;67.16
21838;BME280;11081;45.946;6.140;2023-02-14T04:25:13;96787.06;;;4.18;67.09
21838;BME280;11081;45.946;6.140;2023-02-14T04:27:43;96787.31;;;4.15;67.32
21838;BME280;11081;45.946;6.140;2023-02-14T04:30:11;96793.19;;;4.17;67.01
21838;BME280;11081;45.946;6.140;2023-02-14T04:32:40;96789.66;;;4.18;67.21
21838;BME280;11081;45.946;6.140;2023-02-14T04:35:08;96790.03;;;4.23;66.72
21838;BME280;11081;45.946;6.140;2023-02-14T04:37:37;96797.78;;;4.23;66.72
21838;BME280;11081;45.946;6.140;2023-02-14T04:40:06;96784.59;;;4.26;66.44
21838;BME280;11081;45.946;6.140;2023-02-14T04:42:34;96782.69;;;4.28;66.64
21838;BME280;11081;45.946;6.140;2023-02-14T04:45:04;96778.09;;;4.22;65.79
21838;BME280;11081;45.946;6.140;2023-02-14T04:47:32;96785.16;;;4.20;66.78
21838;BME280;11081;45.946;6.140;2023-02-14T04:50:00;96788.03;;;4.17;66.67
21838;BME280;11081;45.946;6.140;2023-02-14T04:52:28;96785.16;;;4.20;66.29
21838;BME280;11081;45.946;6.140;2023-02-14T04:54:56;96774.31;;;4.17;66.06
21838;BME280;11081;45.946;6.140;2023-02-14T04:57:24;96781.91;;;4.18;66.17
21838;BME280;11081;45.946;6.140;2023-02-14T04:59:52;96775.38;;;4.14;66.62
21838;BME280;11081;45.946;6.140;2023-02-14T05:02:22;96770.47;;;4.11;65.86
21838;BME280;11081;45.946;6.140;2023-02-14T05:04:50;96777.28;;;4.12;66.70
21838;BME280;11081;45.946;6.140;2023-02-14T05:07:18;96775.94;;;4.18;66.24
21838;BME280;11081;45.946;6.140;2023-02-14T05:09:46;96779.19;;;4.20;66.12
21838;BME280;11081;45.946;6.140;2023-02-14T05:12:14;96774.53;;;4.23;65.67
21838;BME280;11081;45.946;6.140;2023-02-14T05:14:42;96775.66;;;4.21;66.25
21838;BME280;11081;45.946;6.140;2023-02-14T05:17:10;96780.00;;;4.20;65.50
21838;BME280;11081;45.946;6.140;2023-02-14T05:19:39;96768.03;;;4.19;65.78
21838;BME280;11081;45.946;6.140;2023-02-14T05:22:08;96768.84;;;4.20;65.75
21838;BME280;11081;45.946;6.140;2023-02-14T05:24:36;96771.28;;;4.21;65.67
21838;BME280;11081;45.946;6.140;2023-02-14T05:27:04;96764.50;;;4.20;65.69
21838;BME280;11081;45.946;6.140;2023-02-14T05:29:33;96763.13;;;4.16;65.49
21838;BME280;11081;45.946;6.140;2023-02-14T05:32:01;96768.28;;;4.16;65.83
21838;BME280;11081;45.946;6.140;2023-02-14T05:34:29;96773.44;;;4.16;65.61
21838;BME280;11081;45.946;6.140;2023-02-14T05:36:58;96770.19;;;4.14;65.49
21838;BME280;11081;45.946;6.140;2023-02-14T05:39:28;96772.41;;;4.09;66.25
21838;BME280;11081;45.946;6.140;2023-02-14T05:41:56;96767.50;;;4.06;65.81
21838;BME280;11081;45.946;6.140;2023-02-14T05:44:25;96771.06;;;4.05;65.73
21838;BME280;11081;45.946;6.140;2023-02-14T05:46:53;96769.72;;;4.01;66.33
21838;BME280;11081;45.946;6.140;2023-02-14T05:49:21;96765.06;;;3.95;66.68
21838;BME280;11081;45.946;6.140;2023-02-14T05:51:49;96762.38;;;3.87;66.66
21838;BME280;11081;45.946;6.140;2023-02-14T05:54:18;96763.63;;;3.83;66.78
21838;BME280;11081;45.946;6.140;2023-02-14T05:56:46;96768.13;;;3.81;66.69
21838;BME280;11081;45.946;6.140;2023-02-14T05:59:14;96772.19;;;3.74;66.65
21838;BME280;11081;45.946;6.140;2023-02-14T06:01:42;96775.88;;;3.61;67.38
21838;BME280;11081;45.946;6.140;2023-02-14T06:04:10;96771.09;;;3.66;67.06
21838;BME280;11081;45.946;6.140;2023-02-14T06:06:38;96765.97;;;3.57;67.53
21838;BME280;11081;45.946;6.140;2023-02-14T06:09:06;96772.22;;;3.54;67.96
21838;BME280;11081;45.946;6.140;2023-02-14T06:11:36;96772.22;;;3.54;67.91
21838;BME280;11081;45.946;6.140;2023-02-14T06:14:04;96778.44;;;3.61;67.80
21838;BME280;11081;45.946;6.140;2023-02-14T06:16:32;96773.81;;;3.65;67.50
21838;BME280;11081;45.946;6.140;2023-02-14T06:19:00;96769.19;;;3.68;67.27
21838;BME280;11081;45.946;6.140;2023-02-14T06:21:28;96774.09;;;3.72;66.75
21838;BME280;11081;45.946;6.140;2023-02-14T06:23:56;96782.09;;;3.68;67.15
21838;BME280;11081;45.946;6.140;2023-02-14T06:26:24;96785.63;;;3.67;66.82
21838;BME280;11081;45.946;6.140;2023-02-14T06:28:55;96778.44;;;3.61;66.99
21838;BME280;11081;45.946;6.140;2023-02-14T06:31:23;96778.44;;;3.61;67.46
21838;BME280;11081;45.946;6.140;2023-02-14T06:33:52;96787.16;;;3.60;67.15
21838;BME280;11081;45.946;6.140;2023-02-14T06:36:20;96775.47;;;3.56;67.31
21838;BME280;11081;45.946;6.140;2023-02-14T06:38:49;96785.53;;;3.59;67.34
21838;BME280;11081;45.946;6.140;2023-02-14T06:41:17;96775.72;;;3.63;67.17
21838;BME280;11081;45.946;6.140;2023-02-14T06:43:46;96785.25;;;3.62;66.85
21838;BME280;11081;45.946;6.140;2023-02-14T06:46:17;96783.88;;;3.68;67.01
21838;BME280;11081;45.946;6.140;2023-02-14T06:48:45;96787.66;;;3.74;66.61
21838;BME280;11081;45.946;6.140;2023-02-14T06:51:14;96789.03;;;3.87;66.36
21838;BME280;11081;45.946;6.140;2023-02-14T06:53:42;96788.75;;;4.00;65.84
21838;BME280;11081;45.946;6.140;2023-02-14T06:56:10;96790.09;;;4.04;65.98
21838;BME280;11081;45.946;6.140;2023-02-14T06:58:38;96788.19;;;4.06;65.42
21838;BME280;11081;45.946;6.140;2023-02-14T07:01:06;96780.44;;;4.06;66.06
21838;BME280;11081;45.946;6.140;2023-02-14T07:03:35;96790.09;;;4.04;65.82
21838;BME280;11081;45.946;6.140;2023-02-14T07:06:04;96790.38;;;4.01;66.13
21838;BME280;11081;45.946;6.140;2023-02-14T07:08:32;96782.22;;;3.96;66.19
21838;BME280;11081;45.946;6.140;2023-02-14T07:11:00;96787.13;;;3.99;65.74
21838;BME280;11081;45.946;6.140;2023-02-14T07:13:28;96788.47;;;4.03;65.98
21838;BME280;11081;45.946;6.140;2023-02-14T07:15:56;96785.19;;;4.01;66.07
21838;BME280;11081;45.946;6.140;2023-02-14T07:18:24;96778.41;;;4.00;66.70
21838;BME280;11081;45.946;6.140;2023-02-14T07:20:54;96791.31;;;4.00;66.48
21838;BME280;11081;45.946;6.140;2023-02-14T07:23:22;96790.09;;;4.04;66.38
21838;BME280;11081;45.946;6.140;2023-02-14T07:25:50;96792.53;;;4.06;66.41
21838;BME280;11081;45.946;6.140;2023-02-14T07:28:18;96787.38;;;4.06;66.08
21838;BME280;11081;45.946;6.140;2023-02-14T07:30:46;96790.81;;;3.67;67.39
21838;BME280;11081;45.946;6.140;2023-02-14T07:33:14;96789.34;;;3.55;68.05
21838;BME280;11081;45.946;6.140;2023-02-14T07:35:42;96801.13;;;3.67;67.65
21838;BME280;11081;45.946;6.140;2023-02-14T07:38:11;96800.72;;;3.82;67.26
21838;BME280;11081;45.946;6.140;2023-02-14T07:40:39;96793.66;;;3.84;66.95
21838;BME280;11081;45.946;6.140;2023-02-14T07:43:07;96793.09;;;3.90;66.79
21838;BME280;11081;45.946;6.140;2023-02-14T07:45:35;96785.72;;;3.95;66.70
21838;BME280;11081;45.946;6.140;2023-02-14T07:48:03;96792.78;;;4.12;65.63
21838;BME280;11081;45.946;6.140;2023-02-14T07:50:31;96798.22;;;4.09;66.38
21838;BME280;11081;45.946;6.140;2023-02-14T07:52:59;96784.91;;;3.94;67.03
21838;BME280;11081;45.946;6.140;2023-02-14T07:55:28;96788.06;;;3.98;66.85
21838;BME280;11081;45.946;6.140;2023-02-14T07:57:56;96792.00;;;4.02;67.08
21838;BME280;11081;45.946;6.140;2023-02-14T08:00:24;96784.63;;;4.07;66.81
21838;BME280;11081;45.946;6.140;2023-02-14T08:02:53;96789.25;;;4.13;66.93
21838;BME280;11081;45.946;6.140;2023-02-14T08:05:21;96780.00;;;4.20;66.68
21838;BME280;11081;45.946;6.140;2023-02-14T08:07:49;96782.69;;;4.28;66.97
21838;BME280;11081;45.946;6.140;2023-02-14T08:10:18;96786.50;;;4.24;66.55
21838;BME280;11081;45.946;6.140;2023-02-14T08:12:47;96781.72;;;4.29;66.68
21838;BME280;11081;45.946;6.140;2023-02-14T08:15:30;96782.97;;;4.25;66.36
21838;BME280;11081;45.946;6.140;2023-02-14T08:18:16;96778.13;;;4.03;68.32
21838;BME280;11081;45.946;6.140;2023-02-14T08:20:45;96776.78;;;3.99;69.28
21838;BME280;11081;45.946;6.140;2023-02-14T08:23:16;96772.97;;;4.03;69.54
21838;BME280;11081;45.946;6.140;2023-02-14T08:25:44;96771.56;;;4.18;68.75
21838;BME280;11081;45.946;6.140;2023-02-14T08:28:14;96772.06;;;4.32;68.54
21838;BME280;11081;45.946;6.140;2023-02-14T08:30:43;96769.84;;;4.37;68.26
21838;BME280;11081;45.946;6.140;2023-02-14T08:33:11;96769.59;;;4.40;68.38
21838;BME280;11081;45.946;6.140;2023-02-14T08:35:39;96770.38;;;4.50;68.23
21838;BME280;11081;45.946;6.140;2023-02-14T08:38:08;96774.25;;;4.64;68.11
21838;BME280;11081;45.946;6.140;2023-02-14T08:40:36;96777.66;;;4.64;68.16
21838;BME280;11081;45.946;6.140;2023-02-14T08:43:05;96771.25;;;4.68;68.34
21838;BME280;11081;45.946;6.140;2023-02-14T08:45:35;96772.44;;;4.74;68.41
21838;BME280;11081;45.946;6.140;2023-02-14T08:48:05;96767.06;;;4.85;66.97
21838;BME280;11081;45.946;6.140;2023-02-14T08:50:34;96773.16;;;4.94;66.81
21838;BME280;11081;45.946;6.140;2023-02-14T08:53:05;96770.13;;;4.98;66.85
21838;BME280;11081;45.946;6.140;2023-02-14T08:55:34;96772.28;;;5.03;67.78
21838;BME280;11081;45.946;6.140;2023-02-14T08:58:03;96767.34;;;5.09;66.66
21838;BME280;11081;45.946;6.140;2023-02-14T09:00:32;96773.31;;;5.10;67.71
21838;BME280;11081;45.946;6.140;2023-02-14T09:03:02;96780.09;;;5.20;66.91
21838;BME280;11081;45.946;6.140;2023-02-14T09:05:30;96775.34;;;5.34;65.90
21838;BME280;11081;45.946;6.140;2023-02-14T09:08:01;96774.97;;;5.46;66.43
21838;BME280;11081;45.946;6.140;2023-02-14T09:10:29;96778.84;;;5.42;66.59
21838;BME280;11081;45.946;6.140;2023-02-14T09:12:57;96771.44;;;5.47;66.40
21838;BME280;11081;45.946;6.140;2023-02-14T09:15:25;96776.91;;;5.44;65.68
21838;BME280;11081;45.946;6.140;2023-02-14T09:17:53;96773.28;;;5.55;66.22
21838;BME280;11081;45.946;6.140;2023-02-14T09:20:22;96778.97;;;5.59;66.08
21838;BME280;11081;45.946;6.140;2023-02-14T09:22:53;96772.53;;;5.63;65.42
21838;BME280;11081;45.946;6.140;2023-02-14T09:25:21;96775.25;;;5.79;65.14
21838;BME280;11081;45.946;6.140;2023-02-14T09:27:49;96771.50;;;5.91;65.38
21838;BME280;11081;45.946;6.140;2023-02-14T09:30:17;96779.97;;;6.01;64.70
21838;BME280;11081;45.946;6.140;2023-02-14T09:32:46;96770.34;;;6.11;65.09
21838;BME280;11081;45.946;6.140;2023-02-14T09:35:14;96775.22;;;6.15;64.10
21838;BME280;11081;45.946;6.140;2023-02-14T09:37:43;96768.81;;;6.27;64.11
21838;BME280;11081;45.946;6.140;2023-02-14T09:40:30;96771.75;;;6.32;64.13
21838;BME280;11081;45.946;6.140;2023-02-14T09:43:02;96773.06;;;6.36;62.54
21838;BME280;11081;45.946;6.140;2023-02-14T09:45:33;96778.25;;;6.36;63.12
21838;BME280;11081;45.946;6.140;2023-02-14T09:48:05;96771.47;;;6.43;62.17
21838;BME280;11081;45.946;6.140;2023-02-14T09:50:39;96774.59;;;6.47;62.43
21838;BME280;11081;45.946;6.140;2023-02-14T09:53:19;96775.59;;;6.54;61.78
21838;BME280;11081;45.946;6.140;2023-02-14T09:55:52;96780.06;;;6.69;61.57
21838;BME280;11081;45.946;6.140;2023-02-14T09:58:28;96777.81;;;6.75;60.99
21838;BME280;11081;45.946;6.140;2023-02-14T10:01:02;96783.38;;;6.88;61.08
21838;BME280;11081;45.946;6.140;2023-02-14T10:03:53;96777.22;;;6.97;60.29
21838;BME280;11081;45.946;6.140;2023-02-14T10:06:39;96769.78;;;7.02;59.60
21838;BME280;11081;45.946;6.140;2023-02-14T10:09:19;96767.53;;;7.07;60.58
21838;BME280;11081;45.946;6.140;2023-02-14T10:11:49;96771.78;;;7.16;60.46
21838;BME280;11081;45.946;6.140;2023-02-14T10:14:19;96776.66;;;7.19;60.79
21838;BME280;11081;45.946;6.140;2023-02-14T10:16:52;96771.34;;;7.29;60.68
21838;BME280;11081;45.946;6.140;2023-02-14T10:19:26;96768.56;;;7.30;60.02
21838;BME280;11081;45.946;6.140;2023-02-14T10:21:58;96771.16;;;7.39;59.67
21838;BME280;11081;45.946;6.140;2023-02-14T10:24:32;96763.38;;;7.47;59.69
21838;BME280;11081;45.946;6.140;2023-02-14T10:27:08;96759.84;;;7.56;59.32
21838;BME280;11081;45.946;6.140;2023-02-14T10:29:38;96760.47;;;7.58;59.14
21838;BME280;11081;45.946;6.140;2023-02-14T10:32:12;96758.69;;;7.67;58.74
21838;BME280;11081;45.946;6.140;2023-02-14T10:34:46;96750.72;;;7.84;58.09
21838;BME280;11081;45.946;6.140;2023-02-14T10:37:25;96754.63;;;7.97;57.87
21838;BME280;11081;45.946;6.140;2023-02-14T10:40:19;96751.06;;;7.98;57.75
21838;BME280;11081;45.946;6.140;2023-02-14T10:42:55;96748.44;;;8.06;58.14
21838;BME280;11081;45.946;6.140;2023-02-14T10:45:31;96747.28;;;8.16;58.26
21838;BME280;11081;45.946;6.140;2023-02-14T10:48:11;96746.00;;;8.12;58.26
21838;BME280;11081;45.946;6.140;2023-02-14T10:50:48;96734.31;;;8.00;58.21
21838;BME280;11081;45.946;6.140;2023-02-14T10:53:23;96726.97;;;8.12;58.31
21838;BME280;11081;45.946;6.140;2023-02-14T10:55:59;96728.28;;;8.16;58.34
21838;BME280;11081;45.946;6.140;2023-02-14T10:58:32;96721.13;;;8.18;57.93
21838;BME280;11081;45.946;6.140;2023-02-14T11:01:05;96717.22;;;8.22;57.72
21838;BME280;11081;45.946;6.140;2023-02-14T11:03:37;96726.16;;;8.36;57.37
21838;BME280;11081;45.946;6.140;2023-02-14T11:06:09;96716.19;;;8.47;56.56
21838;BME280;11081;45.946;6.140;2023-02-14T11:08:39;96711.59;;;8.58;56.38
21838;BME280;11081;45.946;6.140;2023-02-14T11:11:16;96719.41;;;8.58;55.77
21838;BME280;11081;45.946;6.140;2023-02-14T11:13:47;96714.50;;;8.63;55.82
21838;BME280;11081;45.946;6.140;2023-02-14T11:16:27;96708.09;;;8.73;55.38
21838;BME280;11081;45.946;6.140;2023-02-14T11:19:08;96699.81;;;8.78;54.86
21838;BME280;11081;45.946;6.140;2023-02-14T11:21:38;96696.78;;;8.89;55.40
21838;BME280;11081;45.946;6.140;2023-02-14T11:24:16;96695.28;;;8.95;54.73
21838;BME280;11081;45.946;6.140;2023-02-14T11:26:47;96681.72;;;9.07;54.28
21838;BME280;11081;45.946;6.140;2023-02-14T11:29:25;96680.09;;;9.06;53.57
21838;BME280;11081;45.946;6.140;2023-02-14T11:31:54;96673.22;;;9.13;53.15
21838;BME280;11081;45.946;6.140;2023-02-14T11:34:30;96672.81;;;9.25;53.01
21838;BME280;11081;45.946;6.140;2023-02-14T11:36:59;96667.00;;;9.14;54.26
21838;BME280;11081;45.946;6.140;2023-02-14T11:39:29;96670.59;;;9.13;54.05
21838;BME280;11081;45.946;6.140;2023-02-14T11:42:01;96673.81;;;9.24;53.13
21838;BME280;11081;45.946;6.140;2023-02-14T11:44:32;96665.50;;;9.43;53.96
21838;BME280;11081;45.946;6.140;2023-02-14T11:47:21;96657.34;;;9.46;52.00
21838;BME280;11081;45.946;6.140;2023-02-14T11:49:56;96654.28;;;9.57;52.43
21838;BME280;11081;45.946;6.140;2023-02-14T11:52:27;96660.34;;;9.72;52.85
21838;BME280;11081;45.946;6.140;2023-02-14T11:54:57;96656.88;;;9.80;52.59
21838;BME280;11081;45.946;6.140;2023-02-14T11:57:28;96653.16;;;9.74;51.47
21838;BME280;11081;45.946;6.140;2023-02-14T12:00:02;96647.59;;;9.77;51.55
21838;BME280;11081;45.946;6.140;2023-02-14T12:02:39;96646.19;;;9.90;51.97
21838;BME280;11081;45.946;6.140;2023-02-14T12:05:16;96640.25;;;9.96;51.85
21838;BME280;11081;45.946;6.140;2023-02-14T12:07:47;96641.16;;;10.03;51.22
21838;BME280;11081;45.946;6.140;2023-02-14T12:10:25;96640.44;;;10.09;50.90
21838;BME280;11081;45.946;6.140;2023-02-14T12:12:58;96629.63;;;10.12;51.13
21838;BME280;11081;45.946;6.140;2023-02-14T12:15:29;96621.69;;;10.20;52.08
21838;BME280;11081;45.946;6.140;2023-02-14T12:18:15;96621.53;;;10.36;52.08
21838;BME280;11081;45.946;6.140;2023-02-14T12:20:50;96615.16;;;10.39;52.40
21838;BME280;11081;45.946;6.140;2023-02-14T12:23:24;96614.00;;;10.42;52.82
21838;BME280;11081;45.946;6.140;2023-02-14T12:25:58;96614.25;;;10.47;51.95
21838;BME280;11081;45.946;6.140;2023-02-14T12:28:35;96611.16;;;10.58;53.35
21838;BME280;11081;45.946;6.140;2023-02-14T12:31:08;96599.72;;;10.59;53.27
21838;BME280;11081;45.946;6.140;2023-02-14T12:33:38;96600.25;;;10.69;52.69
21838;BME280;11081;45.946;6.140;2023-02-14T12:36:12;96588.28;;;10.81;52.90
21838;BME280;11081;45.946;6.140;2023-02-14T12:38:51;96591.41;;;10.91;52.86
21838;BME280;11081;45.946;6.140;2023-02-14T12:41:31;96582.16;;;10.89;52.40
21838;BME280;11081;45.946;6.140;2023-02-14T12:44:09;96583.59;;;10.91;52.97
21838;BME280;11081;45.946;6.140;2023-02-14T12:46:57;96576.50;;;11.07;52.50
21838;BME280;11081;45.946;6.140;2023-02-14T12:49:41;96579.34;;;11.12;52.83
21838;BME280;11081;45.946;6.140;2023-02-14T12:52:31;96573.44;;;11.24;53.15
21838;BME280;11081;45.946;6.140;2023-02-14T12:55:15;96569.47;;;11.35;52.39
21838;BME280;11081;45.946;6.140;2023-02-14T12:57:51;96560.25;;;11.39;52.97
21838;BME280;11081;45.946;6.140;2023-02-14T13:00:30;96565.47;;;11.39;52.52
21838;BME280;11081;45.946;6.140;2023-02-14T13:03:23;96555.59;;;11.35;52.01
21838;BME280;11081;45.946;6.140;2023-02-14T13:05:59;96554.66;;;11.42;53.02
21838;BME280;11081;45.946;6.140;2023-02-14T13:08:42;96561.97;;;11.53;52.34
21838;BME280;11081;45.946;6.140;2023-02-14T13:11:21;96553.34;;;11.59;52.40
21838;BME280;11081;45.946;6.140;2023-02-14T13:13:54;96556.84;;;11.67;52.48
21838;BME280;11081;45.946;6.140;2023-02-14T13:16:35;96554.84;;;11.69;52.00
21838;BME280;11081;45.946;6.140;2023-02-14T13:19:12;96537.56;;;11.74;52.21
21838;BME280;11081;45.946;6.140;2023-02-14T13:21:44;96537.63;;;11.81;52.70
21838;BME280;11081;45.946;6.140;2023-02-14T13:24:16;96528.38;;;11.85;52.41
21838;BME280;11081;45.946;6.140;2023-02-14T13:26:48;96532.59;;;11.86;52.16
21838;BME280;11081;45.946;6.140;2023-02-14T13:29:21;96517.50;;;11.81;51.70
21838;BME280;11081;45.946;6.140;2023-02-14T13:31:55;96523.13;;;11.78;51.55
21838;BME280;11081;45.946;6.140;2023-02-14T13:34:29;96510.72;;;11.87;52.36
21838;BME280;11081;45.946;6.140;2023-02-14T13:37:01;96511.97;;;12.04;51.57
21838;BME280;11081;45.946;6.140;2023-02-14T13:39:32;96515.63;;;12.16;51.10
21838;BME280;11081;45.946;6.140;2023-02-14T13:42:05;96507.66;;;12.31;50.88